Terminal Aerodrome Forecast
Issued by NWS Sterling, VA

Current Version | Previous Version | Graphics & Text | Print | Product List | Glossary On
Versions: 1 2 3 4 5 6 7 8 9 10 11 12 13 14 15 16 17 18 19 20 21 22 23
575
FTUS41 KLWX 241432 AAA
TAFIAD
TAF AMD
KIAD 241432Z 2415/2518 19008KT P6SM FEW060 SCT250
     FM241600 18012G20KT P6SM SCT060
     FM250000 17008KT P6SM BKN200
     FM250600 17008KT P6SM BKN025
     FM250900 17008KT P6SM BKN015
     FM251400 17012KT P6SM BKN025
     FM251600 18014G22KT P6SM OVC040=

USA.gov is the U.S. government's official web portal to all federal, state and local government web resources and services.